Time;durP1;ratioP1;P1;durP2;ratioP2;P2;SDS_P1;SDS_P2;PMS_P1;PMS_P2;Temp;Humidity;BMP_temperature;BMP_pressure;BME280_temperature;BME280_humidity;BME280_pressure;Samples;Min_cycle;Max_cycle;Signal;HPM_P1;HPM_P2
2023/03/13 00:00:54;;;;;;;25.33;6.13;;;;;;;10.95;100.00;99629.34;5081704;28;20038;-80
2023/03/13 00:03:20;;;;;;;23.15;6.15;;;;;;;10.97;100.00;99623.47;5117406;27;20031;-80
2023/03/13 00:05:45;;;;;;;19.90;6.57;;;;;;;10.98;100.00;99618.72;5102033;27;20030;-80
2023/03/13 00:08:10;;;;;;;19.75;5.55;;;;;;;11.00;100.00;99594.22;5067535;27;20019;-80
2023/03/13 00:10:37;;;;;;;20.95;5.85;;;;;;;10.98;100.00;99599.28;5101590;27;20487;-81
2023/03/13 00:13:03;;;;;;;22.23;5.53;;;;;;;10.95;100.00;99598.81;5101834;27;20655;-81
2023/03/13 00:15:28;;;;;;;20.77;5.30;;;;;;;10.98;100.00;99602.91;5085155;27;20023;-81
2023/03/13 00:17:53;;;;;;;25.50;6.05;;;;;;;10.95;100.00;99587.69;5098073;28;20031;-81
2023/03/13 00:20:19;;;;;;;18.38;5.47;;;;;;;10.98;100.00;99586.22;5110702;27;20031;-81
2023/03/13 00:22:44;;;;;;;19.67;6.05;;;;;;;10.99;100.00;99589.81;5101299;27;20065;-80
2023/03/13 00:25:10;;;;;;;19.60;5.20;;;;;;;11.00;100.00;99580.34;5064432;28;20061;-80
2023/03/13 00:27:35;;;;;;;17.83;5.45;;;;;;;11.01;100.00;99579.22;5066314;27;20023;-80
2023/03/13 00:30:01;;;;;;;21.05;6.03;;;;;;;10.99;100.00;99579.53;5081045;28;20031;-80
2023/03/13 00:32:26;;;;;;;19.40;5.65;;;;;;;11.01;100.00;99573.66;5104802;27;20023;-80
2023/03/13 00:34:52;;;;;;;19.67;5.32;;;;;;;11.01;100.00;99565.31;5064217;28;20027;-80
2023/03/13 00:37:17;;;;;;;16.35;5.10;;;;;;;11.02;100.00;99569.72;5063592;27;20027;-80
2023/03/13 00:39:43;;;;;;;17.52;5.40;;;;;;;11.02;100.00;99570.53;5114298;27;20038;-80
2023/03/13 00:42:09;;;;;;;21.52;5.28;;;;;;;11.01;100.00;99574.47;5109425;27;20031;-80
2023/03/13 00:44:35;;;;;;;22.83;5.13;;;;;;;11.04;100.00;99567.47;5067706;27;20038;-80
2023/03/13 00:47:00;;;;;;;17.85;6.00;;;;;;;11.01;100.00;99559.78;5059107;28;20043;-80
2023/03/13 00:49:26;;;;;;;14.95;5.35;;;;;;;11.00;100.00;99578.38;5077420;28;20028;-80
2023/03/13 00:51:51;;;;;;;18.50;5.45;;;;;;;11.01;100.00;99570.88;5060117;28;20559;-80
2023/03/13 00:54:16;;;;;;;22.90;6.03;;;;;;;11.04;100.00;99564.69;5064409;28;20031;-80
2023/03/13 00:56:42;;;;;;;19.27;5.32;;;;;;;11.03;100.00;99576.91;5077661;28;20039;-80
2023/03/13 00:59:07;;;;;;;16.52;4.90;;;;;;;11.02;100.00;99570.53;5070654;28;20024;-80
2023/03/13 01:01:34;;;;;;;21.00;5.57;;;;;;;11.01;100.00;99566.13;5093336;28;20449;-80
2023/03/13 01:04:01;;;;;;;26.70;5.07;;;;;;;11.02;100.00;99553.06;5083362;28;20035;-80
2023/03/13 01:06:28;;;;;;;19.13;5.07;;;;;;;11.01;100.00;99568.91;5060429;28;20383;-80
2023/03/13 01:08:53;;;;;;;18.27;5.00;;;;;;;11.02;100.00;99578.06;5063645;28;20031;-81
2023/03/13 01:11:21;;;;;;;25.17;5.43;;;;;;;11.04;100.00;99573.84;5073061;28;20028;-80
2023/03/13 01:13:46;;;;;;;21.80;5.30;;;;;;;11.04;100.00;99571.06;5071261;28;20031;-80
2023/03/13 01:16:14;;;;;;;18.67;5.15;;;;;;;11.03;100.00;99576.91;5077063;28;20539;-80
2023/03/13 01:18:42;;;;;;;18.83;5.15;;;;;;;11.06;100.00;99570.72;5084802;28;20059;-81
2023/03/13 01:21:07;;;;;;;24.13;5.68;;;;;;;11.06;100.00;99581.84;5062062;28;20106;-80
2023/03/13 01:23:33;;;;;;;17.65;5.15;;;;;;;11.04;100.00;99568.28;5063975;28;20039;-80
2023/03/13 01:25:58;;;;;;;18.05;5.20;;;;;;;11.06;100.00;99556.81;5097036;28;20034;-80
2023/03/13 01:28:24;;;;;;;20.60;5.88;;;;;;;11.05;100.00;99566.31;5060322;28;20683;-80
2023/03/13 01:30:49;;;;;;;18.52;5.10;;;;;;;11.03;100.00;99569.44;5058829;28;20027;-80
2023/03/13 01:33:15;;;;;;;19.55;5.40;;;;;;;11.06;100.00;99567.94;5084087;28;20028;-80
2023/03/13 01:35:40;;;;;;;21.50;6.07;;;;;;;11.05;100.00;99558.78;5063529;28;20062;-80
2023/03/13 01:38:06;;;;;;;19.75;5.93;;;;;;;11.06;100.00;99552.13;5080233;28;20027;-80
2023/03/13 01:40:38;;;;;;;23.15;5.57;;;;;;;11.05;100.00;99547.69;5063249;28;20024;-80
2023/03/13 01:43:21;;;;;;;21.38;5.35;;;;;;;11.05;100.00;99544.09;5080197;28;20479;-80
2023/03/13 01:46:17;;;;;;;18.95;5.45;;;;;;;11.07;100.00;99539.84;5045063;28;20032;-80
2023/03/13 01:48:56;;;;;;;19.02;5.45;;;;;;;11.05;100.00;99539.34;5062094;28;20061;-80
2023/03/13 01:51:37;;;;;;;16.80;5.00;;;;;;;11.02;100.00;99531.66;5097226;28;20028;-80
2023/03/13 01:54:03;;;;;;;22.52;5.65;;;;;;;11.04;100.00;99531.34;5055748;28;20024;-80
2023/03/13 01:56:52;;;;;;;16.08;4.78;;;;;;;11.04;100.00;99528.56;5091578;28;20490;-80
2023/03/13 01:59:21;;;;;;;18.13;5.75;;;;;;;11.04;100.00;99520.22;5078973;28;20556;-81
2023/03/13 02:01:47;;;;;;;18.45;5.32;;;;;;;11.03;100.00;99513.00;5080103;28;20051;-80
2023/03/13 02:04:13;;;;;;;10.20;4.63;;;;;;;11.03;100.00;99502.75;5080179;28;20028;-80
2023/03/13 02:06:39;;;;;;;19.05;5.50;;;;;;;11.04;100.00;99506.34;5079960;28;20058;-80
2023/03/13 02:09:08;;;;;;;17.40;5.28;;;;;;;11.03;100.00;99501.91;5063467;28;20046;-80
2023/03/13 02:11:45;;;;;;;15.30;5.22;;;;;;;11.05;100.00;99494.88;5080028;28;20036;-80
2023/03/13 02:14:10;;;;;;;14.40;4.70;;;;;;;11.04;100.00;99501.59;5061454;28;20062;-80
2023/03/13 02:16:36;;;;;;;15.63;4.95;;;;;;;11.05;100.00;99477.41;5059959;28;20147;-80
2023/03/13 02:19:02;;;;;;;17.98;5.00;;;;;;;11.06;100.00;99470.69;5074429;28;20024;-80
2023/03/13 02:21:39;;;;;;;20.17;4.80;;;;;;;11.05;100.00;99469.88;5062948;28;20027;-80
2023/03/13 02:24:10;;;;;;;18.27;5.10;;;;;;;11.05;100.00;99461.53;5083665;28;20036;-80
2023/03/13 02:26:36;;;;;;;17.13;5.35;;;;;;;11.07;100.00;99458.47;5100567;28;20027;-80
2023/03/13 02:29:01;;;;;;;13.80;5.30;;;;;;;11.09;100.00;99459.78;5080138;28;20085;-81
2023/03/13 02:31:27;;;;;;;19.13;4.40;;;;;;;11.11;100.00;99456.66;5073578;28;20388;-80
2023/03/13 02:33:52;;;;;;;17.48;5.45;;;;;;;11.08;100.00;99458.13;5100159;28;20036;-80
2023/03/13 02:36:18;;;;;;;19.48;5.57;;;;;;;11.11;100.00;99460.25;5083246;28;20032;-80
2023/03/13 02:38:58;;;;;;;19.63;5.25;;;;;;;11.12;100.00;99456.34;5083080;28;20159;-81
2023/03/13 02:41:24;;;;;;;17.23;5.30;;;;;;;11.14;100.00;99434.63;5063310;28;20051;-80
2023/03/13 02:43:49;;;;;;;20.40;6.05;;;;;;;11.14;100.00;99431.84;5081290;28;20028;-80
2023/03/13 02:46:17;;;;;;;18.65;5.32;;;;;;;11.13;100.00;99421.03;5068221;27;20023;-80
2023/03/13 02:48:52;;;;;;;20.98;5.68;;;;;;;11.13;100.00;99409.91;5086899;27;20062;-81
2023/03/13 02:51:19;;;;;;;19.00;6.35;;;;;;;11.14;100.00;99411.53;5104371;27;20110;-82
2023/03/13 02:53:46;;;;;;;23.70;7.20;;;;;;;11.12;100.00;99397.19;5120378;27;20698;-82
2023/03/13 02:56:13;;;;;;;23.85;7.18;;;;;;;11.11;100.00;99420.53;5083034;28;20107;-82
2023/03/13 02:58:39;;;;;;;19.38;6.30;;;;;;;11.08;100.00;99412.84;5082966;27;20031;-82
2023/03/13 03:01:06;;;;;;;15.18;6.63;;;;;;;11.09;100.00;99393.09;5086668;27;20031;-81
2023/03/13 03:03:38;;;;;;;23.48;7.30;;;;;;;11.08;100.00;99396.19;5070326;27;20030;-81
2023/03/13 03:06:04;;;;;;;17.30;6.05;;;;;;;11.07;100.00;99384.25;5086825;27;20126;-82
2023/03/13 03:08:30;;;;;;;21.08;6.60;;;;;;;11.08;100.00;99380.31;5103319;27;20031;-81
2023/03/13 03:10:55;;;;;;;23.05;6.95;;;;;;;11.06;100.00;99368.72;5119720;27;20091;-82
2023/03/13 03:13:21;;;;;;;19.25;7.25;;;;;;;11.05;100.00;99371.81;5103368;27;20549;-82
2023/03/13 03:15:46;;;;;;;16.80;6.50;;;;;;;11.04;100.00;99361.88;5083971;27;20039;-82
2023/03/13 03:18:12;;;;;;;20.42;7.13;;;;;;;11.03;100.00;99354.66;5082721;28;20678;-82
2023/03/13 03:20:37;;;;;;;19.25;7.53;;;;;;;11.02;100.00;99353.03;5066887;27;20032;-82
2023/03/13 03:23:02;;;;;;;21.95;7.57;;;;;;;11.03;100.00;99349.94;5086086;27;20035;-81
2023/03/13 03:25:28;;;;;;;16.80;7.18;;;;;;;11.01;100.00;99346.66;5083460;27;20488;-82
2023/03/13 03:27:53;;;;;;;18.23;6.47;;;;;;;11.01;100.00;99343.06;5082523;28;20027;-82
2023/03/13 03:30:19;;;;;;;18.58;6.97;;;;;;;11.00;100.00;99322.78;5085792;27;20072;-81
2023/03/13 03:32:44;;;;;;;14.77;6.28;;;;;;;11.04;100.00;99331.31;5089489;27;20442;-82
2023/03/13 03:35:10;;;;;;;20.65;6.43;;;;;;;10.99;100.00;99340.59;5084943;27;20019;-83
2023/03/13 03:37:35;;;;;;;16.52;6.18;;;;;;;11.00;100.00;99338.63;5081897;28;20438;-81
2023/03/13 03:40:01;;;;;;;12.30;6.05;;;;;;;11.00;100.00;99335.84;5098423;27;20035;-82
2023/03/13 03:42:26;;;;;;;10.88;5.38;;;;;;;11.00;100.00;99345.00;5102364;27;20080;-81
2023/03/13 03:44:52;;;;;;;12.35;5.70;;;;;;;10.98;100.00;99321.47;5085405;27;20038;-82
2023/03/13 03:47:17;;;;;;;14.68;5.18;;;;;;;10.97;100.00;99340.09;5092567;28;20078;-81
2023/03/13 03:49:42;;;;;;;14.05;6.57;;;;;;;10.98;100.00;99340.91;5081765;27;20471;-82
2023/03/13 03:52:08;;;;;;;8.88;5.30;;;;;;;10.98;100.00;99341.75;5065664;27;20023;-82
2023/03/13 03:54:34;;;;;;;16.73;5.60;;;;;;;10.96;100.00;99327.38;5081751;28;20035;-82
2023/03/13 03:56:59;;;;;;;14.48;6.30;;;;;;;10.98;100.00;99335.34;5079378;28;20027;-82
2023/03/13 03:59:26;;;;;;;16.77;5.82;;;;;;;10.98;100.00;99338.97;5102407;27;20062;-82
2023/03/13 04:01:51;;;;;;;12.75;5.82;;;;;;;10.99;100.00;99332.28;5085300;27;20027;-81
2023/03/13 04:04:17;;;;;;;10.18;4.95;;;;;;;11.00;100.00;99331.13;5098452;28;20032;-82
2023/03/13 04:06:42;;;;;;;14.13;5.30;;;;;;;11.02;100.00;99325.25;5064521;28;20019;-81
2023/03/13 04:09:08;;;;;;;10.23;5.20;;;;;;;10.97;100.00;99342.88;5085354;27;20030;-82
2023/03/13 04:11:33;;;;;;;12.40;5.65;;;;;;;11.02;100.00;99344.69;5098487;28;20031;-82
2023/03/13 04:13:59;;;;;;;11.98;5.28;;;;;;;11.03;100.00;99343.53;5085186;27;20053;-82
2023/03/13 04:16:24;;;;;;;11.65;4.95;;;;;;;11.03;100.00;99344.38;5060791;28;20466;-82
2023/03/13 04:18:50;;;;;;;12.13;4.90;;;;;;;11.00;100.00;99344.19;5117158;27;20155;-82
2023/03/13 04:21:15;;;;;;;7.18;4.30;;;;;;;11.03;100.00;99343.53;5097977;28;20388;-82
2023/03/13 04:23:40;;;;;;;10.60;4.20;;;;;;;11.03;100.00;99349.09;5119112;27;20032;-83
2023/03/13 04:26:06;;;;;;;9.30;4.80;;;;;;;11.01;100.00;99343.88;5100119;27;20092;-82
2023/03/13 04:28:31;;;;;;;10.63;4.50;;;;;;;11.03;100.00;99354.66;5098292;28;20023;-82
2023/03/13 04:30:57;;;;;;;10.05;3.90;;;;;;;11.05;100.00;99349.59;5083954;27;20023;-82
2023/03/13 04:33:23;;;;;;;7.95;4.53;;;;;;;11.04;100.00;99351.56;5084203;27;20016;-81
2023/03/13 04:35:49;;;;;;;7.68;4.10;;;;;;;11.05;100.00;99353.19;5099064;28;20050;-82
2023/03/13 04:38:14;;;;;;;9.77;3.90;;;;;;;11.04;100.00;99353.53;5094820;27;20479;-82
2023/03/13 04:40:40;;;;;;;9.57;3.65;;;;;;;11.03;100.00;99363.81;5067656;27;20084;-82
2023/03/13 04:43:05;;;;;;;5.25;3.88;;;;;;;11.04;100.00;99336.84;5073339;28;20449;-82
2023/03/13 04:45:30;;;;;;;5.78;3.08;;;;;;;11.07;100.00;99352.88;5078760;28;20036;-83
2023/03/13 04:47:56;;;;;;;6.55;4.30;;;;;;;11.06;100.00;99342.88;5084516;27;20051;-82
2023/03/13 04:50:21;;;;;;;8.48;3.53;;;;;;;11.08;100.00;99351.72;5062508;28;20078;-81
2023/03/13 04:52:47;;;;;;;7.38;3.40;;;;;;;11.04;100.00;99357.13;5083681;27;20023;-82
2023/03/13 04:55:12;;;;;;;6.55;3.47;;;;;;;11.02;100.00;99342.72;5064238;28;20020;-82
2023/03/13 04:57:38;;;;;;;7.95;3.30;;;;;;;11.03;100.00;99349.94;5081915;28;20114;-82
2023/03/13 05:00:09;;;;;;;6.82;3.22;;;;;;;11.03;100.00;99337.97;5094165;28;20034;-82
2023/03/13 05:02:34;;;;;;;8.75;3.25;;;;;;;11.03;100.00;99349.94;5084840;27;20433;-82
2023/03/13 05:04:59;;;;;;;6.75;2.60;;;;;;;11.04;100.00;99332.13;5080821;28;20084;-82
2023/03/13 05:07:25;;;;;;;6.18;3.28;;;;;;;11.03;100.00;99344.38;5100811;27;20019;-82
2023/03/13 05:09:50;;;;;;;4.78;2.45;;;;;;;11.03;100.00;99322.16;5067002;27;20072;-81
2023/03/13 05:12:16;;;;;;;8.18;2.97;;;;;;;11.04;100.00;99328.53;5097620;28;20614;-82
2023/03/13 05:14:41;;;;;;;4.50;2.83;;;;;;;11.02;100.00;99316.91;5080863;28;20043;-82
2023/03/13 05:17:07;;;;;;;7.47;2.78;;;;;;;11.01;100.00;99312.50;5065882;27;20023;-82
2023/03/13 05:19:32;;;;;;;7.55;2.58;;;;;;;11.00;100.00;99306.09;5097365;28;20392;-81
2023/03/13 05:21:58;;;;;;;11.43;2.90;;;;;;;11.02;100.00;99303.03;5083601;27;20023;-82
2023/03/13 05:24:23;;;;;;;10.52;3.20;;;;;;;11.01;100.00;99295.84;5083881;27;20120;-82
2023/03/13 05:26:48;;;;;;;12.40;3.67;;;;;;;11.01;100.00;99291.09;5063722;28;20019;-82
2023/03/13 05:29:14;;;;;;;14.45;4.30;;;;;;;10.98;100.00;99286.19;5079651;28;20040;-81
2023/03/13 05:31:39;;;;;;;11.82;3.70;;;;;;;11.01;100.00;99295.84;5082763;28;20035;-82
2023/03/13 05:34:05;;;;;;;11.60;3.85;;;;;;;10.98;100.00;99304.78;5097464;28;20038;-81
2023/03/13 05:36:30;;;;;;;13.85;3.75;;;;;;;10.98;100.00;99302.03;5063459;28;20028;-82
2023/03/13 05:38:56;;;;;;;16.85;4.32;;;;;;;10.91;100.00;99297.78;5080763;28;20031;-82
2023/03/13 05:41:21;;;;;;;12.98;4.47;;;;;;;10.93;100.00;99287.16;5066952;28;20498;-81
2023/03/13 05:43:47;;;;;;;15.82;4.47;;;;;;;10.91;100.00;99288.63;5100679;28;20038;-82
2023/03/13 05:46:12;;;;;;;19.25;4.80;;;;;;;10.91;100.00;99267.22;5082652;28;20439;-81
2023/03/13 05:48:38;;;;;;;17.17;4.78;;;;;;;10.89;100.00;99282.56;5094357;28;20560;-81
2023/03/13 05:51:04;;;;;;;17.52;5.03;;;;;;;10.88;100.00;99281.75;5063489;28;20548;-83
2023/03/13 05:53:29;;;;;;;20.88;4.75;;;;;;;10.88;100.00;99286.50;5080452;28;20111;-81
2023/03/13 05:55:54;;;;;;;23.52;5.22;;;;;;;10.88;100.00;99281.75;5117733;28;20034;-81
2023/03/13 05:58:20;;;;;;;18.40;5.40;;;;;;;10.87;100.00;99271.00;5090341;27;20031;-81
2023/03/13 06:00:45;;;;;;;22.90;5.80;;;;;;;10.87;100.00;99252.38;5101037;28;20510;-82
2023/03/13 06:03:11;;;;;;;20.20;5.40;;;;;;;10.87;100.00;99252.38;5102572;27;20027;-82
2023/03/13 06:05:36;;;;;;;24.67;5.82;;;;;;;10.85;100.00;99248.28;5100772;28;20032;-81
2023/03/13 06:08:02;;;;;;;22.50;5.25;;;;;;;10.82;100.00;99260.03;5083963;28;20024;-81
2023/03/13 06:10:28;;;;;;;28.50;6.35;;;;;;;10.83;100.00;99243.03;5121407;27;20479;-81
2023/03/13 06:12:54;;;;;;;22.85;6.22;;;;;;;10.80;100.00;99246.47;5066083;28;20026;-81
2023/03/13 06:15:19;;;;;;;23.20;5.95;;;;;;;10.80;100.00;99240.09;5083558;28;20020;-81
2023/03/13 06:17:45;;;;;;;24.38;5.15;;;;;;;10.77;100.00;99226.88;5083703;28;20387;-81
2023/03/13 06:20:11;;;;;;;20.70;4.93;;;;;;;10.75;100.00;99221.63;5070626;27;20076;-81
2023/03/13 06:22:36;;;;;;;21.77;5.22;;;;;;;10.74;100.00;99209.72;5103762;27;20019;-81
2023/03/13 06:25:02;;;;;;;23.90;5.20;;;;;;;10.72;100.00;99216.72;5121119;27;20038;-81
2023/03/13 06:27:27;;;;;;;25.17;5.97;;;;;;;10.70;100.00;99211.53;5100616;28;20027;-81
2023/03/13 06:29:53;;;;;;;22.38;5.15;;;;;;;10.67;100.00;99222.44;5095172;27;20038;-81
2023/03/13 06:32:18;;;;;;;22.83;5.43;;;;;;;10.64;100.00;99226.72;5090079;27;20035;-81
2023/03/13 06:34:44;;;;;;;22.75;5.25;;;;;;;10.63;100.00;99213.16;5086886;27;20035;-81
2023/03/13 06:37:09;;;;;;;24.58;5.32;;;;;;;10.60;100.00;99222.94;5097224;27;20495;-81
2023/03/13 06:39:34;;;;;;;19.70;5.00;;;;;;;10.57;100.00;99209.72;5086754;27;20035;-81
2023/03/13 06:42:00;;;;;;;23.33;5.95;;;;;;;10.56;100.00;99201.69;5111610;27;20057;-81
2023/03/13 06:44:26;;;;;;;28.08;5.97;;;;;;;10.54;100.00;99192.91;5096336;27;20031;-81
2023/03/13 06:46:51;;;;;;;26.88;5.97;;;;;;;10.55;100.00;99200.88;5083172;28;20063;-82
2023/03/13 06:49:16;;;;;;;25.65;5.70;;;;;;;10.54;100.00;99204.81;5100140;28;20024;-81
2023/03/13 06:51:42;;;;;;;25.58;6.05;;;;;;;10.54;100.00;99195.69;5066620;28;20039;-81
2023/03/13 06:54:07;;;;;;;26.17;5.90;;;;;;;10.55;100.00;99198.13;5082744;28;20480;-81
2023/03/13 06:56:33;;;;;;;26.33;6.53;;;;;;;10.54;100.00;99192.91;5064431;28;20023;-81
2023/03/13 06:58:58;;;;;;;30.25;5.72;;;;;;;10.54;100.00;99184.56;5083108;28;20391;-81
2023/03/13 07:01:24;;;;;;;30.27;6.32;;;;;;;10.56;100.00;99185.88;5049590;28;20065;-80
2023/03/13 07:03:49;;;;;;;27.85;5.57;;;;;;;10.57;100.00;99183.91;5081685;28;20028;-81
2023/03/13 07:06:15;;;;;;;27.65;6.32;;;;;;;10.57;100.00;99198.63;5082662;28;20042;-80
2023/03/13 07:08:40;;;;;;;30.05;6.13;;;;;;;10.56;100.00;99190.59;5082565;28;20115;-81
2023/03/13 07:11:08;;;;;;;27.88;6.50;;;;;;;10.56;100.00;99191.44;5065890;28;20024;-81
2023/03/13 07:13:34;;;;;;;31.35;6.25;;;;;;;10.55;100.00;99178.69;5082870;28;20031;-81
2023/03/13 07:16:04;;;;;;;29.92;5.72;;;;;;;10.57;100.00;99186.69;5082550;28;20023;-80
2023/03/13 07:18:30;;;;;;;32.13;6.05;;;;;;;10.57;100.00;99187.50;5083065;28;20027;-80
2023/03/13 07:20:57;;;;;;;30.70;6.05;;;;;;;10.59;100.00;99192.75;5099312;28;20096;-80
2023/03/13 07:23:23;;;;;;;31.05;6.18;;;;;;;10.61;100.00;99198.78;5062748;28;20476;-80
2023/03/13 07:25:54;;;;;;;25.25;5.70;;;;;;;10.60;100.00;99178.53;5064133;28;20086;-80
2023/03/13 07:28:20;;;;;;;28.45;5.72;;;;;;;10.60;100.00;99183.25;5082716;28;20376;-80
2023/03/13 07:30:45;;;;;;;29.95;5.82;;;;;;;10.63;100.00;99180.66;5079616;28;20058;-80
2023/03/13 07:33:11;;;;;;;33.97;6.30;;;;;;;10.62;100.00;99173.47;5088221;28;20053;-80
2023/03/13 07:35:36;;;;;;;21.77;6.22;;;;;;;10.64;100.00;99175.91;5048867;28;20027;-80
2023/03/13 07:38:02;;;;;;;31.35;6.20;;;;;;;10.64;100.00;99167.56;5082409;28;20024;-81
2023/03/13 07:40:27;;;;;;;36.45;6.25;;;;;;;10.66;100.00;99165.28;5081231;28;20040;-81
2023/03/13 07:42:53;;;;;;;34.60;6.85;;;;;;;10.68;100.00;99168.56;5086991;28;20417;-81
2023/03/13 07:45:18;;;;;;;31.10;6.63;;;;;;;10.70;100.00;99144.06;5078330;28;20043;-80
2023/03/13 07:47:44;;;;;;;30.23;6.38;;;;;;;10.73;100.00;99158.09;5082052;28;20533;-81
2023/03/13 07:50:10;;;;;;;23.98;5.53;;;;;;;10.77;100.00;99152.72;5085783;27;20024;-80
2023/03/13 07:52:35;;;;;;;33.55;6.18;;;;;;;10.78;100.00;99159.06;5085137;27;20019;-81
2023/03/13 07:55:00;;;;;;;38.13;6.60;;;;;;;10.83;100.00;99156.13;5085401;27;20395;-81
2023/03/13 07:57:26;;;;;;;31.00;6.63;;;;;;;10.86;100.00;99153.50;5076711;28;20027;-80
2023/03/13 07:59:51;;;;;;;30.65;5.90;;;;;;;10.90;100.00;99146.16;5115614;27;20383;-79
2023/03/13 08:02:17;;;;;;;31.00;6.40;;;;;;;10.95;100.00;99147.97;5101478;27;20049;-81
2023/03/13 08:04:42;;;;;;;32.83;6.55;;;;;;;11.00;100.00;99156.09;5084884;27;20392;-82
2023/03/13 08:07:09;;;;;;;37.35;5.95;;;;;;;11.04;100.00;99150.72;5098692;28;20152;-81
2023/03/13 08:09:34;;;;;;;31.90;5.72;;;;;;;11.09;100.00;99139.44;5085108;27;20079;-81
2023/03/13 08:11:59;;;;;;;38.85;7.00;;;;;;;11.17;100.00;99152.47;5101916;27;20034;-80
2023/03/13 08:14:26;;;;;;;32.05;6.22;;;;;;;11.21;100.00;99145.09;5101843;27;20080;-80
2023/03/13 08:16:51;;;;;;;34.45;5.78;;;;;;;11.25;100.00;99139.69;5085331;27;20039;-80
2023/03/13 08:19:17;;;;;;;27.30;5.47;;;;;;;11.32;100.00;99138.03;5067750;27;20023;-80
2023/03/13 08:21:42;;;;;;;29.23;5.53;;;;;;;11.37;100.00;99123.97;5101344;27;20475;-80
2023/03/13 08:24:10;;;;;;;31.67;5.75;;;;;;;11.46;100.00;99112.81;5068127;27;20475;-80
2023/03/13 08:26:37;;;;;;;38.80;6.22;;;;;;;11.54;100.00;99119.47;5081751;28;20031;-80
2023/03/13 08:29:04;;;;;;;29.65;6.35;;;;;;;11.60;100.00;99118.94;5079009;28;20360;-80
2023/03/13 08:31:32;;;;;;;37.05;6.95;;;;;;;11.69;100.00;99115.31;5067995;27;20071;-81
2023/03/13 08:33:58;;;;;;;33.90;6.25;;;;;;;11.74;100.00;99098.44;5101625;27;20031;-80
2023/03/13 08:36:25;;;;;;;30.48;5.35;;;;;;;11.81;100.00;99105.09;5085586;27;20038;-80
2023/03/13 08:38:51;;;;;;;38.05;6.55;;;;;;;11.90;100.00;99093.94;5080764;27;20546;-79
2023/03/13 08:41:18;;;;;;;35.53;6.47;;;;;;;11.98;100.00;99075.56;5100051;27;20542;-80
2023/03/13 08:43:44;;;;;;;37.60;6.90;;;;;;;12.07;100.00;99084.66;5084254;27;20035;-80
2023/03/13 08:46:10;;;;;;;26.65;5.75;;;;;;;12.15;100.00;99075.44;5096843;28;20391;-80
2023/03/13 08:48:35;;;;;;;41.50;6.97;;;;;;;12.24;100.00;99078.16;5097023;27;20042;-80
2023/03/13 08:51:08;;;;;;;26.73;5.88;;;;;;;12.30;100.00;99085.94;5099620;27;20030;-80
2023/03/13 08:53:34;;;;;;;43.05;7.07;;;;;;;12.40;100.00;99079.16;5097368;28;20044;-80
2023/03/13 08:56:00;;;;;;;30.85;5.70;;;;;;;12.53;100.00;99082.78;5057875;27;20426;-80
2023/03/13 08:58:26;;;;;;;32.85;6.40;;;;;;;12.62;100.00;99079.94;5084625;27;20031;-80
2023/03/13 09:00:51;;;;;;;33.47;5.65;;;;;;;12.71;100.00;99080.69;5084305;27;20027;-80
2023/03/13 09:03:16;;;;;;;31.80;5.63;;;;;;;12.81;100.00;99077.44;5082437;27;20026;-80
2023/03/13 09:05:42;;;;;;;32.08;5.43;;;;;;;12.91;100.00;99068.66;5063791;28;20084;-80
2023/03/13 09:08:08;;;;;;;30.75;5.82;;;;;;;13.00;100.00;99067.75;5067169;27;20034;-80
2023/03/13 09:10:33;;;;;;;32.88;6.03;;;;;;;13.09;100.00;99060.91;5067163;27;20087;-80
2023/03/13 09:12:59;;;;;;;30.85;5.40;;;;;;;13.17;100.00;99059.16;5067330;27;20436;-81
2023/03/13 09:15:24;;;;;;;31.23;6.18;;;;;;;13.25;100.00;99049.06;5097758;28;20053;-80
2023/03/13 09:17:50;;;;;;;30.60;5.07;;;;;;;13.38;100.00;99043.19;5080287;28;20023;-79
2023/03/13 09:20:17;;;;;;;35.53;5.40;;;;;;;13.50;100.00;99044.34;5083887;27;20080;-80
2023/03/13 09:22:43;;;;;;;22.55;5.07;;;;;;;13.62;100.00;99038.75;5099736;27;20034;-80
2023/03/13 09:25:09;;;;;;;31.92;5.60;;;;;;;13.76;100.00;99030.00;5080359;28;20643;-80
2023/03/13 09:27:34;;;;;;;37.28;5.68;;;;;;;13.89;100.00;99037.22;5099238;28;20456;-80
2023/03/13 09:30:00;;;;;;;32.33;5.75;;;;;;;14.02;100.00;99024.84;5084034;27;20031;-80
2023/03/13 09:32:25;;;;;;;28.20;5.05;;;;;;;14.17;100.00;99028.06;5099347;28;20039;-81
2023/03/13 09:34:51;;;;;;;30.73;5.43;;;;;;;14.33;100.00;99028.13;5080463;28;20023;-80
2023/03/13 09:37:16;;;;;;;27.15;5.15;;;;;;;14.39;100.00;99007.16;5083398;28;20030;-80
2023/03/13 09:39:41;;;;;;;28.50;5.10;;;;;;;14.45;100.00;99026.09;5079503;28;20027;-80
2023/03/13 09:42:20;;;;;;;24.40;4.32;;;;;;;14.50;100.00;99020.25;5090255;28;20046;-80
2023/03/13 09:44:51;;;;;;;27.33;4.40;;;;;;;14.58;100.00;99018.50;5083788;28;20080;-80
2023/03/13 09:47:19;;;;;;;28.70;4.57;;;;;;;14.65;100.00;99027.06;5083323;28;20039;-80
2023/03/13 09:49:47;;;;;;;31.75;5.53;;;;;;;14.72;100.00;99012.50;5080443;28;20036;-80
2023/03/13 09:52:32;;;;;;;26.00;4.95;;;;;;;14.78;100.00;99015.81;5063437;28;20024;-81
2023/03/13 09:55:22;;;;;;;31.27;5.05;;;;;;;14.83;100.00;98996.81;5081261;27;20063;-80
2023/03/13 09:57:54;;;;;;;29.23;5.00;;;;;;;14.87;100.00;99008.06;5093445;28;20035;-80
2023/03/13 10:00:26;;;;;;;29.38;5.22;;;;;;;14.87;100.00;99002.50;5083436;28;20039;-80
2023/03/13 10:03:07;;;;;;;29.15;4.85;;;;;;;14.91;100.00;99009.81;5097367;28;20028;-80
2023/03/13 10:05:33;;;;;;;29.55;4.45;;;;;;;14.93;100.00;99001.88;5079896;28;20095;-80
2023/03/13 10:08:20;;;;;;;26.00;4.53;;;;;;;14.96;100.00;98997.56;5095816;28;20024;-80
2023/03/13 10:11:06;;;;;;;23.58;4.72;;;;;;;14.95;100.00;99005.09;5126287;28;20035;-80
2023/03/13 10:13:36;;;;;;;31.10;4.93;;;;;;;14.95;100.00;98993.91;5100177;28;20566;-80
2023/03/13 10:16:17;;;;;;;29.08;5.30;;;;;;;15.02;100.00;98995.31;5117257;28;20429;-80
2023/03/13 10:18:44;;;;;;;29.48;4.97;;;;;;;15.10;100.00;98999.88;5084132;28;20365;-80
2023/03/13 10:21:15;;;;;;;23.00;4.78;;;;;;;15.16;100.00;99009.63;5082919;28;20034;-81
2023/03/13 10:24:06;;;;;;;29.63;5.55;;;;;;;15.28;100.00;98991.94;5100662;28;20099;-80
2023/03/13 10:26:33;;;;;;;23.55;5.10;;;;;;;15.32;100.00;98996.47;5117498;28;20076;-80
2023/03/13 10:29:24;;;;;;;28.02;4.97;;;;;;;15.38;100.00;98983.81;5064216;28;20028;-80
2023/03/13 10:32:03;;;;;;;25.58;4.95;;;;;;;15.47;100.00;98974.41;5079427;28;20037;-80
2023/03/13 10:34:43;;;;;;;24.88;4.93;;;;;;;15.52;100.00;98979.72;5098551;28;20028;-80
2023/03/13 10:37:13;;;;;;;28.27;4.85;;;;;;;15.60;100.00;98984.28;5095043;28;20076;-81
2023/03/13 10:39:39;;;;;;;29.25;4.30;;;;;;;15.63;100.00;98973.19;5080125;28;20023;-81
2023/03/13 10:42:09;;;;;;;28.98;5.47;;;;;;;15.69;100.00;98993.34;5107794;27;20031;-80
2023/03/13 10:44:35;;;;;;;27.65;4.68;;;;;;;15.72;100.00;98967.41;5099685;28;20514;-80
2023/03/13 10:47:01;;;;;;;25.50;4.43;;;;;;;15.79;100.00;98969.56;5083753;27;20043;-81
2023/03/13 10:49:27;;;;;;;25.08;4.03;;;;;;;15.93;100.00;98963.44;5066413;28;20156;-80
2023/03/13 10:52:00;;;;;;;27.23;4.68;;;;;;;16.05;100.00;98954.94;5083664;27;20023;-80
2023/03/13 10:54:36;;;;;;;22.70;4.60;;;;;;;16.16;100.00;98950.34;5095531;27;20042;-80
2023/03/13 10:57:17;;;;;;;25.33;4.45;;;;;;;16.31;100.00;98951.44;5103595;27;20480;-80
2023/03/13 10:59:44;;;;;;;25.00;3.97;;;;;;;16.40;100.00;98954.81;5120234;27;20030;-79
2023/03/13 11:02:34;;;;;;;30.50;4.45;;;;;;;16.56;100.00;98953.91;5086462;27;20027;-80
2023/03/13 11:05:00;;;;;;;30.48;4.78;;;;;;;16.64;100.00;98952.84;5104592;27;20387;-80
2023/03/13 11:07:34;;;;;;;30.80;5.05;;;;;;;16.75;100.00;98951.88;5082303;27;20103;-81
2023/03/13 11:10:17;;;;;;;28.67;5.28;;;;;;;16.82;100.00;98941.97;5086345;27;20387;-81
2023/03/13 11:12:44;;;;;;;32.05;5.45;;;;;;;16.91;100.00;98948.97;5137891;27;20031;-80
2023/03/13 11:15:23;;;;;;;28.50;4.88;;;;;;;17.03;100.00;98942.34;5092294;27;20489;-80
2023/03/13 11:17:57;;;;;;;28.02;4.47;;;;;;;17.14;100.00;98932.13;5129459;27;20031;-80